createdAt,value
2023-03-29T00:02:30.719Z,101244.80
2023-03-29T00:05:01.308Z,101242.40
2023-03-29T00:07:29.598Z,101239.00
2023-03-29T00:09:57.677Z,101238.00
2023-03-29T00:12:24.589Z,101234.40
2023-03-29T00:14:51.168Z,101233.80
2023-03-29T00:17:18.669Z,101235.80
2023-03-29T00:19:48.532Z,101236.60
2023-03-29T00:22:16.811Z,101236.40
2023-03-29T00:24:47.337Z,101237.20
2023-03-29T00:27:15.809Z,101237.20
2023-03-29T00:29:43.276Z,101233.00
2023-03-29T00:32:12.108Z,101234.60
2023-03-29T00:34:42.178Z,101227.40
2023-03-29T00:37:11.735Z,101230.00
2023-03-29T00:39:41.454Z,101228.20
2023-03-29T00:42:16.948Z,101227.20
2023-03-29T00:45:16.996Z,101225.60
2023-03-29T00:47:52.570Z,101219.60
2023-03-29T00:50:37.306Z,101218.60
2023-03-29T00:53:14.469Z,101213.20
2023-03-29T00:55:58.595Z,101215.20
2023-03-29T00:58:37.598Z,101212.60
2023-03-29T01:01:10.993Z,101212.40
2023-03-29T01:03:49.319Z,101209.40
2023-03-29T01:06:24.185Z,101213.60
2023-03-29T01:09:01.040Z,101215.20
2023-03-29T01:11:40.932Z,101217.60
2023-03-29T01:14:23.540Z,101212.00
2023-03-29T01:16:52.688Z,101209.60
2023-03-29T01:19:27.463Z,101208.60
2023-03-29T01:22:27.903Z,101207.20
2023-03-29T01:25:35.152Z,101207.40
2023-03-29T01:28:29.165Z,101205.60
2023-03-29T01:31:07.143Z,101208.60
2023-03-29T01:33:45.559Z,101208.60
2023-03-29T01:36:22.801Z,101212.20
2023-03-29T01:39:04.571Z,101213.60
2023-03-29T01:42:02.453Z,101210.00
2023-03-29T01:45:18.868Z,101208.00
2023-03-29T01:48:02.198Z,101209.80
2023-03-29T01:50:53.789Z,101212.20
2023-03-29T01:53:53.178Z,101207.00
2023-03-29T01:56:26.924Z,101206.60
2023-03-29T01:59:03.833Z,101203.60
2023-03-29T02:01:39.730Z,101206.40
2023-03-29T02:04:13.712Z,101203.00
2023-03-29T02:06:44.173Z,101203.60
2023-03-29T02:09:12.092Z,101202.00
2023-03-29T02:11:43.551Z,101198.60
2023-03-29T02:14:10.368Z,101201.80
2023-03-29T02:16:38.991Z,101198.60
2023-03-29T02:19:11.977Z,101196.40
2023-03-29T02:22:05.949Z,101193.20
2023-03-29T02:24:35.908Z,101191.40
2023-03-29T02:27:03.867Z,101194.40
2023-03-29T02:29:30.641Z,101193.20
2023-03-29T02:32:39.711Z,101194.20
2023-03-29T02:35:33.722Z,101187.80
2023-03-29T02:38:06.342Z,101188.20
2023-03-29T02:40:36.965Z,101192.00
2023-03-29T02:43:08.510Z,101188.00
2023-03-29T02:45:38.576Z,101190.40
2023-03-29T02:48:11.471Z,101185.20
2023-03-29T02:50:42.227Z,101185.20
2023-03-29T02:53:16.416Z,101184.20
2023-03-29T02:55:45.467Z,101182.20
2023-03-29T02:58:15.079Z,101184.40
2023-03-29T03:00:47.584Z,101185.60
2023-03-29T03:03:15.096Z,101187.60
2023-03-29T03:05:42.376Z,101190.80
2023-03-29T03:08:09.508Z,101186.80
2023-03-29T03:10:37.075Z,101189.40
2023-03-29T03:13:06.075Z,101188.20
2023-03-29T03:15:35.137Z,101190.40
2023-03-29T03:18:03.822Z,101187.00
2023-03-29T03:20:30.643Z,101186.20
2023-03-29T03:22:58.055Z,101189.40
2023-03-29T03:25:25.049Z,101192.00
2023-03-29T03:27:52.561Z,101191.60
2023-03-29T03:30:20.401Z,101194.60
2023-03-29T03:32:47.467Z,101189.00
2023-03-29T03:35:15.742Z,101197.60
2023-03-29T03:37:42.386Z,101197.00
2023-03-29T03:40:10.970Z,101197.40
2023-03-29T03:42:43.441Z,101201.80
2023-03-29T03:45:11.753Z,101202.80
2023-03-29T03:47:38.386Z,101200.80
2023-03-29T03:50:06.288Z,101206.40
2023-03-29T03:52:33.072Z,101204.80
2023-03-29T03:55:03.021Z,101207.60
2023-03-29T03:57:32.473Z,101208.60
2023-03-29T03:59:59.786Z,101211.40
2023-03-29T04:02:26.856Z,101211.20
2023-03-29T04:04:54.389Z,101214.80
2023-03-29T04:07:21.565Z,101225.20
2023-03-29T04:09:48.962Z,101218.60
2023-03-29T04:12:15.889Z,101227.00
2023-03-29T04:14:42.449Z,101221.80
2023-03-29T04:17:10.502Z,101220.60
2023-03-29T04:19:36.927Z,101224.00
2023-03-29T04:22:05.593Z,101221.00
2023-03-29T04:24:33.630Z,101224.60
2023-03-29T04:27:00.007Z,101225.00
2023-03-29T04:29:26.645Z,101229.40
2023-03-29T04:31:56.038Z,101227.60
2023-03-29T04:34:22.734Z,101230.40
2023-03-29T04:36:52.491Z,101230.20
2023-03-29T04:39:18.971Z,101234.00
2023-03-29T04:41:46.925Z,101235.20
2023-03-29T04:44:13.680Z,101235.60
2023-03-29T04:46:42.346Z,101238.80
2023-03-29T04:49:08.809Z,101241.00
2023-03-29T04:51:38.016Z,101242.20
2023-03-29T04:54:05.709Z,101246.20
2023-03-29T04:56:32.752Z,101247.40
2023-03-29T04:58:59.629Z,101246.00
2023-03-29T05:01:28.404Z,101251.80
2023-03-29T05:03:56.311Z,101254.40
2023-03-29T05:06:24.228Z,101257.00
2023-03-29T05:08:51.614Z,101252.00
2023-03-29T05:11:19.634Z,101249.00
2023-03-29T05:13:46.174Z,101249.20
2023-03-29T05:16:13.276Z,101252.40
2023-03-29T05:18:40.334Z,101257.00
2023-03-29T05:21:07.149Z,101258.60
2023-03-29T05:23:34.457Z,101258.80
2023-03-29T05:26:04.507Z,101258.80
2023-03-29T05:28:33.098Z,101259.40
2023-03-29T05:31:06.420Z,101265.80
2023-03-29T05:33:34.282Z,101265.20
2023-03-29T05:36:15.867Z,101263.60
2023-03-29T05:38:49.227Z,101265.40
2023-03-29T05:41:17.301Z,101266.80
2023-03-29T05:43:45.924Z,101267.80
2023-03-29T05:46:12.971Z,101267.60
2023-03-29T05:48:40.234Z,101275.20
2023-03-29T05:51:07.714Z,101272.40
2023-03-29T05:53:37.249Z,101273.60
2023-03-29T05:56:04.042Z,101274.60
2023-03-29T05:58:33.673Z,101278.60
2023-03-29T06:01:04.366Z,101279.20
2023-03-29T06:03:34.201Z,101280.20
2023-03-29T06:06:05.794Z,101281.80
2023-03-29T06:08:34.630Z,101284.80
2023-03-29T06:11:05.496Z,101292.00
2023-03-29T06:13:33.747Z,101292.40
2023-03-29T06:16:06.567Z,101292.00
2023-03-29T06:18:34.333Z,101295.20
2023-03-29T06:21:03.246Z,101300.00
2023-03-29T06:23:32.044Z,101301.00
2023-03-29T06:25:59.492Z,101299.00
2023-03-29T06:28:27.534Z,101297.20
2023-03-29T06:30:56.042Z,101298.40
2023-03-29T06:33:24.531Z,101297.80
2023-03-29T06:35:51.185Z,101299.40
2023-03-29T06:38:19.544Z,101301.20
2023-03-29T06:40:47.636Z,101303.80
2023-03-29T06:43:16.407Z,101309.20
2023-03-29T06:45:44.900Z,101311.00
2023-03-29T06:48:13.265Z,101315.80
2023-03-29T06:50:41.311Z,101318.60
2023-03-29T06:53:10.973Z,101323.40
2023-03-29T06:55:37.639Z,101326.80
2023-03-29T06:58:07.630Z,101329.80
2023-03-29T07:00:37.579Z,101337.60
2023-03-29T07:03:13.136Z,101340.80
2023-03-29T07:05:44.518Z,101343.20
2023-03-29T07:08:13.227Z,101343.40
2023-03-29T07:10:47.595Z,101340.60
2023-03-29T07:13:16.737Z,101342.00
2023-03-29T07:15:44.412Z,101345.00
2023-03-29T07:18:12.224Z,101349.00
2023-03-29T07:20:40.013Z,101349.60
2023-03-29T07:23:08.902Z,101349.60
2023-03-29T07:25:38.500Z,101356.80
2023-03-29T07:28:06.792Z,101357.60
2023-03-29T07:30:35.939Z,101360.20
2023-03-29T07:33:04.564Z,101359.00
2023-03-29T07:35:32.150Z,101360.20
2023-03-29T07:38:01.817Z,101367.20
2023-03-29T07:40:29.163Z,101372.80
2023-03-29T07:42:56.797Z,101377.20
2023-03-29T07:45:29.730Z,101379.40
2023-03-29T07:47:59.325Z,101382.00
2023-03-29T07:50:31.986Z,101390.40
2023-03-29T07:53:00.311Z,101388.80
2023-03-29T07:55:30.803Z,101395.20
2023-03-29T07:57:57.595Z,101398.40
2023-03-29T08:00:24.643Z,101394.00
2023-03-29T08:02:53.266Z,101396.20
2023-03-29T08:05:37.684Z,101393.00
2023-03-29T08:08:10.294Z,101401.60
2023-03-29T08:10:38.832Z,101401.80
2023-03-29T08:13:08.526Z,101402.60
2023-03-29T08:15:38.846Z,101405.60
2023-03-29T08:18:07.276Z,101407.40
2023-03-29T08:20:34.475Z,101410.40
2023-03-29T08:23:05.994Z,101408.40
2023-03-29T08:25:37.077Z,101410.80
2023-03-29T08:28:07.206Z,101406.40
2023-03-29T08:30:34.941Z,101417.00
2023-03-29T08:33:01.462Z,101419.80
2023-03-29T08:35:29.399Z,101418.00
2023-03-29T08:37:56.338Z,101424.80
2023-03-29T08:40:29.320Z,101428.20
2023-03-29T08:43:40.837Z,101430.40
2023-03-29T08:46:35.311Z,101432.60
2023-03-29T08:49:07.384Z,101430.00
2023-03-29T08:51:48.062Z,101434.20
2023-03-29T08:54:25.294Z,101442.00
2023-03-29T08:57:02.382Z,101442.80
2023-03-29T08:59:32.639Z,101439.40
2023-03-29T09:02:05.406Z,101440.00
2023-03-29T09:04:36.174Z,101445.20
2023-03-29T09:07:10.192Z,101451.00
2023-03-29T09:09:37.630Z,101455.20
2023-03-29T09:12:31.801Z,101458.80
2023-03-29T09:15:10.714Z,101459.40
2023-03-29T09:18:25.691Z,101468.80
2023-03-29T09:21:24.001Z,101470.00
2023-03-29T09:24:38.858Z,101468.80
2023-03-29T09:27:27.101Z,101473.60
2023-03-29T09:30:42.382Z,101478.40
2023-03-29T09:33:27.075Z,101476.60
2023-03-29T09:36:32.667Z,101479.80
2023-03-29T09:39:00.278Z,101480.60
2023-03-29T09:41:35.788Z,101483.60
2023-03-29T09:44:27.773Z,101481.40
2023-03-29T09:47:09.454Z,101482.40
2023-03-29T09:49:44.762Z,101490.00
2023-03-29T09:52:16.836Z,101492.20
2023-03-29T09:54:45.987Z,101492.00
2023-03-29T09:57:18.481Z,101489.20
2023-03-29T09:59:50.178Z,101494.20
2023-03-29T10:02:20.459Z,101490.40
2023-03-29T10:05:03.569Z,101488.20
2023-03-29T10:07:44.140Z,101489.40
2023-03-29T10:10:24.254Z,101487.00
2023-03-29T10:12:57.529Z,101489.20
2023-03-29T10:15:30.107Z,101489.20
2023-03-29T10:18:10.212Z,101483.40
2023-03-29T10:20:41.630Z,101488.00
2023-03-29T10:23:20.723Z,101485.80
2023-03-29T10:25:52.655Z,101486.60
2023-03-29T10:28:23.929Z,101483.40
2023-03-29T10:31:01.447Z,101484.40
2023-03-29T10:33:34.202Z,101482.80
2023-03-29T10:36:09.592Z,101487.40
2023-03-29T10:38:38.041Z,101495.20
2023-03-29T10:41:17.202Z,101499.20
2023-03-29T10:43:51.186Z,101498.60
2023-03-29T10:46:30.694Z,101497.80
2023-03-29T10:49:05.217Z,101500.40
2023-03-29T10:51:33.878Z,101496.40
2023-03-29T10:54:04.868Z,101501.60
2023-03-29T10:56:50.763Z,101504.00
2023-03-29T10:59:48.636Z,101509.00
2023-03-29T11:02:15.059Z,101502.20
2023-03-29T11:05:12.911Z,101501.80
2023-03-29T11:08:31.211Z,101506.00
2023-03-29T11:11:42.141Z,101504.80
2023-03-29T11:15:10.261Z,101514.60
2023-03-29T11:18:12.124Z,101515.00
2023-03-29T11:21:10.616Z,101515.00
2023-03-29T11:24:20.396Z,101517.20
2023-03-29T11:27:18.976Z,101505.60
2023-03-29T11:30:16.292Z,101505.60
2023-03-29T11:33:08.939Z,101514.20
2023-03-29T11:36:03.720Z,101517.00
2023-03-29T11:38:58.462Z,101522.80
2023-03-29T11:41:38.613Z,101524.20
2023-03-29T11:44:30.376Z,101521.80
2023-03-29T11:47:07.929Z,101516.20
2023-03-29T11:49:48.918Z,101513.40
2023-03-29T11:52:48.861Z,101515.40
2023-03-29T11:55:25.931Z,101510.80
2023-03-29T11:58:02.965Z,101510.80
2023-03-29T12:00:41.409Z,101511.40
2023-03-29T12:03:45.491Z,101513.40
2023-03-29T12:06:27.687Z,101514.20
2023-03-29T12:09:26.026Z,101516.00
2023-03-29T12:12:26.596Z,101513.60
2023-03-29T12:15:02.602Z,101515.00
2023-03-29T12:18:01.590Z,101521.80
2023-03-29T12:20:35.596Z,101516.60
2023-03-29T12:23:04.789Z,101519.80
2023-03-29T12:26:02.106Z,101518.40
2023-03-29T12:29:17.561Z,101517.00
2023-03-29T12:32:10.863Z,101519.80
2023-03-29T12:35:05.248Z,101522.40
2023-03-29T12:38:29.368Z,101516.60
2023-03-29T12:41:01.479Z,101518.20
2023-03-29T12:43:36.945Z,101518.60
2023-03-29T12:46:16.639Z,101518.60
2023-03-29T12:48:49.676Z,101521.60
2023-03-29T12:51:27.376Z,101520.00
2023-03-29T12:54:12.167Z,101518.20
2023-03-29T12:56:55.112Z,101509.00
2023-03-29T12:59:48.236Z,101509.00
2023-03-29T13:02:14.817Z,101508.80
2023-03-29T13:05:00.399Z,101506.80
2023-03-29T13:07:49.019Z,101499.20
2023-03-29T13:10:40.754Z,101504.80
2023-03-29T13:13:17.362Z,101508.20
2023-03-29T13:15:45.482Z,101515.00
2023-03-29T13:18:54.729Z,101509.00
2023-03-29T13:22:29.462Z,101517.00
2023-03-29T13:25:21.275Z,101516.20
2023-03-29T13:28:14.151Z,101513.20
2023-03-29T13:31:40.770Z,101506.20
2023-03-29T13:34:40.372Z,101511.20
2023-03-29T13:38:03.113Z,101512.40
2023-03-29T13:40:45.760Z,101508.60
2023-03-29T13:43:21.625Z,101507.60
2023-03-29T13:46:00.938Z,101502.20
2023-03-29T13:48:50.585Z,101505.40
2023-03-29T13:51:16.985Z,101509.20
2023-03-29T13:53:58.577Z,101508.40
2023-03-29T13:56:36.977Z,101504.80
2023-03-29T13:59:19.409Z,101507.40
2023-03-29T14:01:57.229Z,101505.80
2023-03-29T14:04:30.536Z,101494.80
2023-03-29T14:07:00.521Z,101487.80
2023-03-29T14:09:36.735Z,101488.40
2023-03-29T14:12:12.288Z,101488.60
2023-03-29T14:14:58.235Z,101484.80
2023-03-29T14:17:27.112Z,101487.20
2023-03-29T14:20:02.662Z,101488.20
2023-03-29T14:22:33.401Z,101489.80
2023-03-29T14:25:15.756Z,101494.00
2023-03-29T14:27:43.684Z,101491.20
2023-03-29T14:30:27.287Z,101491.80
2023-03-29T14:32:56.163Z,101499.00
2023-03-29T14:35:32.001Z,101500.60
2023-03-29T14:38:00.879Z,101498.20
2023-03-29T14:40:30.197Z,101501.40
2023-03-29T14:43:01.875Z,101496.40
2023-03-29T14:45:29.810Z,101499.20
2023-03-29T14:47:58.592Z,101498.00
2023-03-29T14:50:30.941Z,101491.20
2023-03-29T14:53:01.183Z,101487.60
2023-03-29T14:55:27.870Z,101487.40
2023-03-29T14:57:57.258Z,101482.00
2023-03-29T15:00:38.596Z,101489.60
2023-03-29T15:03:14.448Z,101492.40
2023-03-29T15:05:50.800Z,101491.20
2023-03-29T15:08:54.129Z,101494.00
2023-03-29T15:11:31.432Z,101490.80
2023-03-29T15:14:33.838Z,101492.80
2023-03-29T15:17:39.502Z,101487.60
2023-03-29T15:20:40.051Z,101486.40
2023-03-29T15:23:15.773Z,101486.80
2023-03-29T15:26:01.731Z,101490.60
2023-03-29T15:28:36.005Z,101479.00
2023-03-29T15:31:21.510Z,101477.60
2023-03-29T15:33:51.863Z,101479.80
2023-03-29T15:36:18.632Z,101479.00
2023-03-29T15:38:49.973Z,101479.20
2023-03-29T15:41:16.474Z,101485.20
2023-03-29T15:43:42.919Z,101485.60
2023-03-29T15:46:16.288Z,101484.40
2023-03-29T15:48:42.838Z,101487.60
2023-03-29T15:51:12.309Z,101491.60
2023-03-29T15:53:39.978Z,101492.40
2023-03-29T15:56:14.030Z,101493.00
2023-03-29T15:58:40.959Z,101493.00
2023-03-29T16:01:40.281Z,101490.60
2023-03-29T16:04:17.451Z,101489.60
2023-03-29T16:06:52.181Z,101490.20
2023-03-29T16:09:21.970Z,101480.60
2023-03-29T16:11:49.609Z,101482.80
2023-03-29T16:14:27.232Z,101483.40
2023-03-29T16:16:55.850Z,101483.40
2023-03-29T16:19:27.557Z,101477.40
2023-03-29T16:21:57.388Z,101479.40
2023-03-29T16:24:30.797Z,101476.20
2023-03-29T16:26:58.657Z,101476.00
2023-03-29T16:29:25.522Z,101480.00
2023-03-29T16:31:54.333Z,101477.80
2023-03-29T16:34:23.247Z,101481.00
2023-03-29T16:36:52.833Z,101481.20
2023-03-29T16:39:19.644Z,101479.20
2023-03-29T16:41:48.399Z,101479.00
2023-03-29T16:44:21.596Z,101477.40
2023-03-29T16:46:53.262Z,101473.60
2023-03-29T16:49:20.462Z,101479.40
2023-03-29T16:51:47.619Z,101480.60
2023-03-29T16:54:19.382Z,101486.40
2023-03-29T16:56:48.060Z,101489.60
2023-03-29T16:59:14.632Z,101489.40
2023-03-29T17:01:42.108Z,101490.80
2023-03-29T17:04:08.973Z,101485.60
2023-03-29T17:06:35.600Z,101489.80
2023-03-29T17:09:03.253Z,101486.00
2023-03-29T17:11:30.187Z,101486.40
2023-03-29T17:13:56.868Z,101486.40
2023-03-29T17:16:23.725Z,101483.20
2023-03-29T17:18:50.531Z,101487.20
2023-03-29T17:21:20.714Z,101487.40
2023-03-29T17:23:47.646Z,101480.80
2023-03-29T17:26:14.886Z,101484.20
2023-03-29T17:28:42.949Z,101481.80
2023-03-29T17:31:09.629Z,101482.40
2023-03-29T17:33:36.767Z,101477.80
2023-03-29T17:36:06.060Z,101473.60
2023-03-29T17:38:34.557Z,101476.60
2023-03-29T17:41:02.436Z,101466.20
2023-03-29T17:43:29.784Z,101466.00
2023-03-29T17:45:56.641Z,101468.60
2023-03-29T17:48:24.447Z,101471.00
2023-03-29T17:50:51.378Z,101473.00
2023-03-29T17:53:18.501Z,101477.40
2023-03-29T17:55:45.246Z,101470.00
2023-03-29T17:58:12.167Z,101465.60
2023-03-29T18:00:39.662Z,101469.60
2023-03-29T18:03:06.235Z,101472.80
2023-03-29T18:05:35.416Z,101469.60
2023-03-29T18:08:03.586Z,101470.60
2023-03-29T18:10:30.206Z,101472.40
2023-03-29T18:12:56.762Z,101476.80
2023-03-29T18:15:23.513Z,101486.00
2023-03-29T18:17:50.368Z,101490.80
2023-03-29T18:20:18.732Z,101489.60
2023-03-29T18:22:45.969Z,101489.60
2023-03-29T18:25:12.367Z,101494.00
2023-03-29T18:27:39.790Z,101494.20
2023-03-29T18:30:08.258Z,101496.80
2023-03-29T18:32:35.667Z,101500.00
2023-03-29T18:35:02.791Z,101502.20
2023-03-29T18:37:30.515Z,101509.80
2023-03-29T18:39:57.098Z,101508.20
2023-03-29T18:42:23.631Z,101511.20
2023-03-29T18:44:53.585Z,101515.80
2023-03-29T18:47:21.392Z,101514.60
2023-03-29T18:49:48.107Z,101518.80
2023-03-29T18:52:17.253Z,101515.00
2023-03-29T18:54:44.115Z,101509.40
2023-03-29T18:57:13.393Z,101508.80
2023-03-29T18:59:40.321Z,101503.40
2023-03-29T19:02:06.842Z,101499.80
2023-03-29T19:04:34.848Z,101504.20
2023-03-29T19:07:02.917Z,101504.20
2023-03-29T19:09:30.238Z,101512.40
2023-03-29T19:11:57.217Z,101512.80
2023-03-29T19:14:24.855Z,101506.60
2023-03-29T19:16:52.036Z,101507.60
2023-03-29T19:19:21.448Z,101512.00
2023-03-29T19:21:51.280Z,101510.40
2023-03-29T19:24:18.498Z,101513.40
2023-03-29T19:26:47.358Z,101521.80
2023-03-29T19:29:14.376Z,101524.00
2023-03-29T19:31:43.563Z,101520.20
2023-03-29T19:34:12.203Z,101517.60
2023-03-29T19:36:40.428Z,101513.80
2023-03-29T19:39:06.978Z,101508.40
2023-03-29T19:41:33.815Z,101506.40
2023-03-29T19:44:00.509Z,101512.00
2023-03-29T19:46:31.519Z,101515.00
2023-03-29T19:48:59.799Z,101509.80
2023-03-29T19:51:27.993Z,101507.40
2023-03-29T19:53:56.940Z,101512.40
2023-03-29T19:56:26.646Z,101511.40
2023-03-29T19:58:53.633Z,101504.40
2023-03-29T20:01:21.694Z,101500.20
2023-03-29T20:03:50.780Z,101497.40
2023-03-29T20:06:19.689Z,101497.20
2023-03-29T20:08:47.454Z,101492.80
2023-03-29T20:11:14.837Z,101496.80
2023-03-29T20:13:45.823Z,101497.60
2023-03-29T20:16:16.653Z,101494.00
2023-03-29T20:18:45.098Z,101496.20
2023-03-29T20:21:16.512Z,101498.20
2023-03-29T20:23:45.623Z,101495.60
2023-03-29T20:26:12.838Z,101491.60
2023-03-29T20:28:39.443Z,101491.20
2023-03-29T20:31:10.429Z,101486.60
2023-03-29T20:33:38.341Z,101489.80
2023-03-29T20:36:06.003Z,101487.20
2023-03-29T20:38:32.658Z,101487.20
2023-03-29T20:40:59.450Z,101489.20
2023-03-29T20:43:25.895Z,101494.60
2023-03-29T20:45:54.319Z,101493.40
2023-03-29T20:48:23.830Z,101490.80
2023-03-29T20:50:50.803Z,101488.40
2023-03-29T20:53:20.240Z,101480.00
2023-03-29T20:55:47.174Z,101481.60
2023-03-29T20:58:15.155Z,101483.40
2023-03-29T21:00:41.552Z,101471.80
2023-03-29T21:03:09.007Z,101473.20
2023-03-29T21:05:35.861Z,101475.00
2023-03-29T21:08:03.682Z,101467.00
2023-03-29T21:10:32.124Z,101458.40
2023-03-29T21:12:59.993Z,101455.60
2023-03-29T21:15:29.664Z,101454.60
2023-03-29T21:17:57.481Z,101460.60
2023-03-29T21:20:24.775Z,101459.40
2023-03-29T21:22:51.948Z,101457.00
2023-03-29T21:25:19.211Z,101452.20
2023-03-29T21:27:49.144Z,101448.80
2023-03-29T21:30:15.945Z,101444.20
2023-03-29T21:32:42.532Z,101450.80
2023-03-29T21:35:10.126Z,101453.20
2023-03-29T21:37:37.717Z,101452.40
2023-03-29T21:40:07.876Z,101455.60
2023-03-29T21:42:34.839Z,101451.60
2023-03-29T21:45:02.466Z,101446.60
2023-03-29T21:47:31.324Z,101448.40
2023-03-29T21:49:58.694Z,101450.60
2023-03-29T21:52:27.115Z,101450.40
2023-03-29T21:54:53.694Z,101453.80
2023-03-29T21:57:21.728Z,101447.20
2023-03-29T21:59:51.497Z,101451.00
2023-03-29T22:02:19.232Z,101445.20
2023-03-29T22:04:45.785Z,101444.40
2023-03-29T22:07:14.558Z,101448.00
2023-03-29T22:09:41.911Z,101445.60
2023-03-29T22:12:09.478Z,101443.40
2023-03-29T22:14:36.022Z,101443.20
2023-03-29T22:17:06.413Z,101436.60
2023-03-29T22:19:39.871Z,101425.60
2023-03-29T22:22:12.895Z,101428.40
2023-03-29T22:24:41.375Z,101426.60
2023-03-29T22:27:11.285Z,101431.00
2023-03-29T22:29:39.042Z,101436.80
2023-03-29T22:32:07.150Z,101432.60
2023-03-29T22:34:36.127Z,101425.60
2023-03-29T22:37:04.153Z,101429.20
2023-03-29T22:39:33.842Z,101434.80
2023-03-29T22:42:01.019Z,101434.80
2023-03-29T22:44:28.473Z,101433.00
2023-03-29T22:46:55.308Z,101430.40
2023-03-29T22:49:22.396Z,101438.00
2023-03-29T22:51:49.206Z,101430.60
2023-03-29T22:54:18.725Z,101424.00
2023-03-29T22:56:46.329Z,101426.00
2023-03-29T22:59:15.230Z,101424.60
2023-03-29T23:01:42.288Z,101419.40
2023-03-29T23:04:08.850Z,101414.40
2023-03-29T23:06:38.233Z,101416.80
2023-03-29T23:09:04.857Z,101414.60
2023-03-29T23:11:31.493Z,101411.00
2023-03-29T23:13:59.438Z,101411.80
2023-03-29T23:16:28.026Z,101406.40
2023-03-29T23:18:56.021Z,101404.40
2023-03-29T23:21:24.182Z,101402.00
2023-03-29T23:23:52.381Z,101398.80
2023-03-29T23:26:22.495Z,101391.80
2023-03-29T23:28:56.159Z,101392.80
2023-03-29T23:31:26.303Z,101389.20
2023-03-29T23:33:53.921Z,101389.00
2023-03-29T23:36:22.625Z,101387.60
2023-03-29T23:38:51.927Z,101382.40
2023-03-29T23:41:19.535Z,101385.20
2023-03-29T23:43:50.166Z,101379.40
2023-03-29T23:46:18.583Z,101373.80
2023-03-29T23:48:50.171Z,101373.80
2023-03-29T23:51:22.100Z,101375.60
2023-03-29T23:53:50.692Z,101376.20
2023-03-29T23:56:17.427Z,101375.40
2023-03-29T23:58:44.431Z,101373.80
